Rechercher aéroport 
image banner adimage banner adimage banner ad
image banner ad

61L - Engine Co Nr 109

Situé à Los Angeles/Van Nuys, United States

ICAO - 61L, IATA -

Données fournies par Airmate  

Information générale

Coordonnées: N34°7'51" W118°29'26"
Élévation : 1375 feet MSL.
Variation magnétique : 14° East
Voir autres Aéroports à California

Données opérationnelles

Special qualification required
Heure actuelle UTC:
Heure actuelle locale:
Météo à : KVNY - Van Nuys ( 9 km )
METAR: KVNY 300051Z 30008KT 10SM CLR 34/01 A2983 RMK AO2 SLP089 T03440011
TAF: KVNY 292348Z 3000/3024 29006KT P6SM SKC FM300700 VRB03KT P6SM SKC FM301700 14005KT P6SM SKC FM302100 14009KT P6SM SKC
Voir NOTAMs / SUP AIP / TFR affectant cet aéroport [VIEW]
Fréquences de communication: [VIEW]

Pistes:

Coordonnées de l'aéroport

Adresse: Los Angeles/Van Nuys United States

Vue satellite de 61L